Webcam Flughafen St.Gallen-Altenrhein

Live-Bilder und Zeitraffer LSZR / ACH.

 

Live aus Altenrhein
LIVE
LSZR 312120Z AUTO 20003KT 150V300 0600 R10/0900U FG VV002 08/08 Q1022
Zeitraffer heute
2020-10-31 00:14:23
LSZR 302250Z AUTO VRB01KT CAVOK 07/06 Q1027